createdAt,value
2023-05-05T00:01:23.047Z,13.3
2023-05-05T00:04:22.763Z,13.26
2023-05-05T00:07:19.199Z,13.17
2023-05-05T00:10:14.728Z,13.37
2023-05-05T00:13:11.455Z,13.49
2023-05-05T00:16:07.854Z,13.51
2023-05-05T00:19:06.410Z,13.42
2023-05-05T00:22:03.013Z,13.51
2023-05-05T00:24:58.511Z,13.38
2023-05-05T00:27:54.069Z,13.08
2023-05-05T00:30:50.729Z,13.15
2023-05-05T00:33:46.265Z,13.12
2023-05-05T00:36:41.762Z,13.26
2023-05-05T00:39:37.311Z,13.17
2023-05-05T00:42:37.872Z,12.94
2023-05-05T00:45:33.449Z,13.29
2023-05-05T00:48:32.003Z,13.13
2023-05-05T00:51:28.581Z,12.79
2023-05-05T00:54:26.105Z,12.6
2023-05-05T00:57:23.685Z,12.47
2023-05-05T01:00:23.212Z,12.56
2023-05-05T01:03:18.910Z,12.68
2023-05-05T01:06:26.308Z,12.71
2023-05-05T01:09:32.851Z,12.85
2023-05-05T01:12:37.434Z,12.74
2023-05-05T01:15:41.954Z,12.75
2023-05-05T01:18:45.422Z,12.67
2023-05-05T01:21:47.016Z,12.83
2023-05-05T01:24:54.556Z,12.95
2023-05-05T01:28:03.089Z,13.04
2023-05-05T01:31:14.622Z,13.13
2023-05-05T01:34:17.138Z,13.02
2023-05-05T01:37:18.658Z,12.96
2023-05-05T01:40:16.254Z,12.89
2023-05-05T01:43:17.804Z,12.94
2023-05-05T01:46:16.484Z,13
2023-05-05T01:49:13.893Z,12.87
2023-05-05T01:52:11.481Z,12.75
2023-05-05T01:55:08.030Z,12.8
2023-05-05T01:58:05.568Z,12.97
2023-05-05T02:01:02.274Z,13.02
2023-05-05T02:04:01.824Z,13
2023-05-05T02:07:01.231Z,12.85
2023-05-05T02:09:59.795Z,12.7
2023-05-05T02:12:56.439Z,12.54
2023-05-05T02:15:53.910Z,12.39
2023-05-05T02:18:51.459Z,12.46
2023-05-05T02:21:48.979Z,12.46
2023-05-05T02:24:44.575Z,12.42
2023-05-05T02:27:44.126Z,12.37
2023-05-05T02:30:43.797Z,12.42
2023-05-05T02:33:43.257Z,12.35
2023-05-05T02:36:44.798Z,12.48
2023-05-05T02:39:51.330Z,12.47
2023-05-05T02:42:52.903Z,12.33
2023-05-05T02:45:50.430Z,12.25
2023-05-05T02:48:46.007Z,12.37
2023-05-05T02:51:41.530Z,12.37
2023-05-05T02:54:37.128Z,12.33
2023-05-05T02:57:36.657Z,12.3
2023-05-05T03:00:41.194Z,12.25
2023-05-05T03:03:49.920Z,12.13
2023-05-05T03:06:51.295Z,12.08
2023-05-05T03:09:54.820Z,12.09
2023-05-05T03:12:54.354Z,12.18
2023-05-05T03:15:52.917Z,11.95
2023-05-05T03:18:50.443Z,11.92
2023-05-05T03:21:48.032Z,11.94
2023-05-05T03:24:49.644Z,11.87
2023-05-05T03:27:45.129Z,11.64
2023-05-05T03:30:42.701Z,11.58
2023-05-05T03:33:39.247Z,11.61
2023-05-05T03:36:35.838Z,11.72
2023-05-05T03:39:31.361Z,11.73
2023-05-05T03:42:26.902Z,11.75
2023-05-05T03:45:24.490Z,11.81
2023-05-05T03:48:20.048Z,11.83
2023-05-05T03:51:16.615Z,11.82
2023-05-05T03:54:13.216Z,11.81
2023-05-05T03:57:08.733Z,11.9
2023-05-05T04:00:05.386Z,11.96
2023-05-05T04:03:00.998Z,12.05
2023-05-05T04:05:56.421Z,12.05
2023-05-05T04:08:51.943Z,12.09
2023-05-05T04:11:47.518Z,12.12
2023-05-05T04:14:43.134Z,12.25
2023-05-05T04:17:38.727Z,12.3
2023-05-05T04:20:36.221Z,12.25
2023-05-05T04:23:32.057Z,12.32
2023-05-05T04:26:27.345Z,12.41
2023-05-05T04:29:22.926Z,12.36
2023-05-05T04:32:18.457Z,12.48
2023-05-05T04:35:14.046Z,12.56
2023-05-05T04:38:09.557Z,12.51
2023-05-05T04:41:06.176Z,12.63
2023-05-05T04:44:01.765Z,12.72
2023-05-05T04:46:57.538Z,12.88
2023-05-05T04:49:53.819Z,13.13
2023-05-05T04:52:51.415Z,13.36
2023-05-05T04:55:47.956Z,13.32
2023-05-05T04:58:43.502Z,13.55
2023-05-05T05:01:39.143Z,13.66
2023-05-05T05:04:34.642Z,13.83
2023-05-05T05:07:31.217Z,13.76
2023-05-05T05:10:27.750Z,13.65
2023-05-05T05:13:23.332Z,14.05
2023-05-05T05:16:18.922Z,14.28
2023-05-05T05:19:14.488Z,14.1
2023-05-05T05:22:09.980Z,14.24
2023-05-05T05:25:06.567Z,14.62
2023-05-05T05:28:10.138Z,14.63
2023-05-05T05:31:02.653Z,14.84
2023-05-05T05:33:58.207Z,15.11
2023-05-05T05:36:53.739Z,15.11
2023-05-05T05:39:52.354Z,15.22
2023-05-05T05:42:47.890Z,15.37
2023-05-05T05:45:43.503Z,15.55
2023-05-05T05:48:39.085Z,15.69
2023-05-05T05:51:34.610Z,15.62
2023-05-05T05:54:34.142Z,15.82
2023-05-05T05:57:30.733Z,16.14
2023-05-05T06:00:27.263Z,16.01
2023-05-05T06:03:23.104Z,16.2
2023-05-05T06:06:18.430Z,16.08
2023-05-05T06:09:13.945Z,16.26
2023-05-05T06:12:09.535Z,16.45
2023-05-05T06:15:06.046Z,16.54
2023-05-05T06:18:01.676Z,16.86
2023-05-05T06:20:57.175Z,17.08
2023-05-05T06:23:53.751Z,17.09
2023-05-05T06:26:49.285Z,17.34
2023-05-05T06:29:44.872Z,17.68
2023-05-05T06:32:40.476Z,17.74
2023-05-05T06:35:35.989Z,18
2023-05-05T06:38:32.526Z,18.11
2023-05-05T06:41:30.109Z,18.04
2023-05-05T06:44:25.677Z,18.21
2023-05-05T06:47:22.218Z,18.24
2023-05-05T06:50:17.788Z,18.6
2023-05-05T06:53:13.340Z,18.73
2023-05-05T06:56:08.863Z,18.67
2023-05-05T06:59:04.452Z,18.82
2023-05-05T07:02:00.037Z,19.13
2023-05-05T07:04:55.683Z,19.35
2023-05-05T07:07:52.181Z,19.27
2023-05-05T07:10:47.761Z,19.43
2023-05-05T07:13:43.258Z,19.45
2023-05-05T07:16:38.887Z,19.65
2023-05-05T07:19:37.395Z,19.24
2023-05-05T07:22:32.920Z,19.85
2023-05-05T07:25:28.536Z,20
2023-05-05T07:28:24.101Z,20.04
2023-05-05T07:31:21.632Z,19.96
2023-05-05T07:34:17.166Z,20.03
2023-05-05T07:37:13.745Z,20.44
2023-05-05T07:40:10.678Z,20.54
2023-05-05T07:43:05.882Z,20.76
2023-05-05T07:46:01.498Z,20.86
2023-05-05T07:48:57.993Z,20.81
2023-05-05T07:51:55.529Z,21.13
2023-05-05T07:54:51.100Z,21.16
2023-05-05T07:57:47.677Z,21.54
2023-05-05T08:00:45.226Z,21.45
2023-05-05T08:03:40.898Z,21.4
2023-05-05T08:06:39.348Z,21.64
2023-05-05T08:09:35.902Z,22.04
2023-05-05T08:12:32.473Z,22.16
2023-05-05T08:15:28.030Z,21.8
2023-05-05T08:18:24.634Z,22.05
2023-05-05T08:21:21.153Z,21.81
2023-05-05T08:24:16.702Z,21.85
2023-05-05T08:27:13.274Z,22
2023-05-05T08:30:09.859Z,21.77
2023-05-05T08:33:05.430Z,22.31
2023-05-05T08:36:00.944Z,22.4
2023-05-05T08:38:56.529Z,22.66
2023-05-05T08:41:53.021Z,22.64
2023-05-05T08:44:48.632Z,23.13
2023-05-05T08:47:47.176Z,22.92
2023-05-05T08:50:47.713Z,23.23
2023-05-05T08:53:52.240Z,23.49
2023-05-05T08:56:50.868Z,23.49
2023-05-05T08:59:48.335Z,23.7
2023-05-05T09:02:47.048Z,24.01
2023-05-05T09:05:43.484Z,24.24
2023-05-05T09:08:41.050Z,24
2023-05-05T09:11:37.613Z,23.05
2023-05-05T09:14:33.205Z,23.23
2023-05-05T09:17:29.728Z,21.88
2023-05-05T09:20:34.246Z,22.28
2023-05-05T09:23:29.804Z,22.27
2023-05-05T09:26:32.389Z,22.09
2023-05-05T09:29:28.919Z,21.89
2023-05-05T09:32:47.518Z,21.73
2023-05-05T09:35:48.984Z,21.47
2023-05-05T09:38:52.520Z,21.37
2023-05-05T09:41:53.078Z,21.53
2023-05-05T09:44:48.645Z,21.9
2023-05-05T09:47:46.271Z,21.77
2023-05-05T09:50:43.849Z,22.12
2023-05-05T09:53:42.349Z,22.37
2023-05-05T09:56:39.873Z,23.67
2023-05-05T09:59:47.380Z,24.4
2023-05-05T10:02:47.973Z,25.42
2023-05-05T10:05:50.605Z,25.26
2023-05-05T10:08:51.040Z,25.61
2023-05-05T10:11:47.567Z,25.61
2023-05-05T10:14:50.068Z,26.03
2023-05-05T10:17:54.277Z,25.91
2023-05-05T10:20:55.194Z,26.02
2023-05-05T10:23:57.798Z,26.57
2023-05-05T10:26:57.338Z,25.72
2023-05-05T10:30:02.810Z,24.96
2023-05-05T10:33:22.211Z,25.56
2023-05-05T10:36:08.927Z,26.94
2023-05-05T10:39:09.538Z,27.43
2023-05-05T10:42:06.053Z,27.79
2023-05-05T10:45:04.578Z,27.04
2023-05-05T10:48:04.234Z,27.71
2023-05-05T10:51:11.698Z,27.73
2023-05-05T10:54:16.214Z,26.67
2023-05-05T10:57:14.789Z,25.38
2023-05-05T11:00:18.310Z,24.25
2023-05-05T11:03:19.948Z,24.37
2023-05-05T11:06:20.422Z,24.42
2023-05-05T11:09:20.958Z,24.68
2023-05-05T11:12:27.498Z,24.07
2023-05-05T11:15:37.022Z,23.4
2023-05-05T11:18:35.592Z,23.77
2023-05-05T11:21:44.915Z,25.47
2023-05-05T11:24:46.675Z,25.75
2023-05-05T11:27:54.192Z,27.01
2023-05-05T11:31:00.778Z,27.5
2023-05-05T11:34:07.265Z,27.9
2023-05-05T11:37:11.767Z,27.54
2023-05-05T11:40:19.340Z,28.46
2023-05-05T11:43:18.854Z,28.18
2023-05-05T11:46:16.473Z,28.55
2023-05-05T11:49:23.973Z,28.49
2023-05-05T11:52:27.544Z,29.29
2023-05-05T11:55:23.058Z,30.27
2023-05-05T11:58:18.650Z,30.03
2023-05-05T12:01:14.188Z,29.84
2023-05-05T12:04:11.912Z,29.04
2023-05-05T12:07:07.276Z,30.55
2023-05-05T12:10:02.856Z,31.46
2023-05-05T12:13:11.475Z,30.5
2023-05-05T12:16:08.978Z,27.83
2023-05-05T12:19:05.515Z,27.7
2023-05-05T12:22:01.074Z,28.03
2023-05-05T12:24:57.628Z,27.78
2023-05-05T12:27:54.137Z,28.24
2023-05-05T12:30:56.788Z,28.31
2023-05-05T12:33:53.301Z,27.18
2023-05-05T12:36:49.805Z,26.67
2023-05-05T12:39:45.375Z,26.77
2023-05-05T12:42:40.962Z,26.62
2023-05-05T12:45:37.556Z,26.63
2023-05-05T12:48:34.099Z,26.28
2023-05-05T12:51:35.654Z,25.77
2023-05-05T12:54:40.200Z,25.73
2023-05-05T12:57:46.714Z,28.61
2023-05-05T13:00:46.296Z,30.17
2023-05-05T13:03:46.819Z,30.04
2023-05-05T13:06:58.338Z,30.01
2023-05-05T13:10:00.892Z,29.08
2023-05-05T13:12:57.483Z,30.49
2023-05-05T13:15:53.048Z,30.75
2023-05-05T13:18:49.576Z,29.09
2023-05-05T13:21:45.102Z,29.43
2023-05-05T13:24:50.988Z,29.42
2023-05-05T13:27:41.245Z,29.6
2023-05-05T13:30:37.782Z,29.05
2023-05-05T13:33:35.372Z,28.11
2023-05-05T13:36:30.914Z,27.88
2023-05-05T13:39:26.445Z,28.57
2023-05-05T13:42:22.047Z,27.97
2023-05-05T13:45:19.581Z,27.52
2023-05-05T13:48:16.138Z,26.75
2023-05-05T13:51:11.749Z,26.72
2023-05-05T13:54:07.286Z,26.16
2023-05-05T13:57:02.824Z,25.99
2023-05-05T13:59:58.401Z,25.54
2023-05-05T14:02:54.974Z,25.74
2023-05-05T14:05:51.536Z,25.79
2023-05-05T14:08:47.065Z,25.65
2023-05-05T14:11:42.656Z,25.73
2023-05-05T14:14:38.196Z,26.7
2023-05-05T14:17:33.774Z,26.89
2023-05-05T14:20:29.384Z,27.01
2023-05-05T14:23:25.889Z,27.03
2023-05-05T14:26:21.466Z,27.17
2023-05-05T14:29:18.048Z,26.63
2023-05-05T14:32:13.652Z,26.56
2023-05-05T14:35:09.263Z,26.42
2023-05-05T14:38:04.744Z,27.62
2023-05-05T14:41:02.224Z,28.81
2023-05-05T14:43:58.804Z,27.26
2023-05-05T14:46:54.367Z,26.27
2023-05-05T14:49:50.947Z,26.34
2023-05-05T14:52:47.466Z,26.79
2023-05-05T14:55:44.051Z,26.4
2023-05-05T14:58:39.614Z,26.23
2023-05-05T15:01:36.229Z,26.04
2023-05-05T15:04:31.724Z,25.89
2023-05-05T15:07:29.278Z,25.95
2023-05-05T15:10:25.833Z,26.18
2023-05-05T15:13:22.444Z,25.86
2023-05-05T15:16:17.980Z,25.67
2023-05-05T15:19:13.481Z,26.13
2023-05-05T15:22:09.047Z,27.09
2023-05-05T15:25:08.987Z,28.76
2023-05-05T15:28:05.201Z,30.66
2023-05-05T15:31:01.791Z,29.93
2023-05-05T15:33:57.305Z,32.47
2023-05-05T15:36:56.868Z,34.09
2023-05-05T15:39:54.406Z,34.98
2023-05-05T15:42:50.998Z,35.06
2023-05-05T15:45:46.578Z,35.16
2023-05-05T15:48:42.108Z,35.74
2023-05-05T15:51:37.830Z,35.75
2023-05-05T15:54:33.244Z,35.75
2023-05-05T15:57:28.798Z,35.45
2023-05-05T16:00:25.350Z,36.08
2023-05-05T16:03:20.973Z,35.36
2023-05-05T16:06:16.477Z,33.4
2023-05-05T16:09:12.010Z,30.93
2023-05-05T16:12:08.568Z,30.64
2023-05-05T16:15:05.144Z,30.12
2023-05-05T16:18:00.718Z,32.14
2023-05-05T16:20:56.276Z,32.38
2023-05-05T16:23:51.835Z,33.91
2023-05-05T16:26:48.355Z,33.85
2023-05-05T16:29:43.962Z,33.48
2023-05-05T16:32:39.518Z,33.48
2023-05-05T16:35:36.107Z,33.81
2023-05-05T16:38:31.627Z,32.08
2023-05-05T16:41:28.222Z,31.19
2023-05-05T16:44:28.775Z,30.04
2023-05-05T16:47:25.377Z,30.07
2023-05-05T16:50:20.842Z,29.09
2023-05-05T16:53:16.418Z,28.17
2023-05-05T16:56:12.967Z,27.32
2023-05-05T16:59:08.583Z,26.69
2023-05-05T17:02:06.112Z,26.38
2023-05-05T17:05:01.694Z,26.3
2023-05-05T17:07:57.235Z,26.13
2023-05-05T17:10:52.796Z,25.83
2023-05-05T17:13:48.293Z,25.24
2023-05-05T17:16:43.915Z,25.06
2023-05-05T17:19:39.497Z,24.55
2023-05-05T17:22:36.045Z,24.25
2023-05-05T17:25:31.607Z,23.81
2023-05-05T17:28:27.144Z,23.52
2023-05-05T17:31:22.778Z,23.31
2023-05-05T17:34:18.297Z,23.23
2023-05-05T17:37:13.861Z,23.01
2023-05-05T17:40:10.424Z,22.81
2023-05-05T17:43:06.959Z,22.61
2023-05-05T17:46:02.636Z,22.25
2023-05-05T17:48:58.114Z,22.01
2023-05-05T17:51:53.598Z,21.82
2023-05-05T17:54:50.236Z,21.76
2023-05-05T17:57:46.734Z,21.7
2023-05-05T18:00:42.326Z,21.53
2023-05-05T18:03:40.679Z,21.37
2023-05-05T18:06:36.408Z,21.16
2023-05-05T18:09:32.017Z,20.82
2023-05-05T18:12:27.511Z,20.71
2023-05-05T18:15:23.097Z,20.7
2023-05-05T18:18:18.709Z,20.49
2023-05-05T18:21:15.242Z,20.37
2023-05-05T18:24:19.490Z,20.18
2023-05-05T18:27:12.349Z,20.17
2023-05-05T18:30:08.908Z,19.99
2023-05-05T18:33:04.560Z,19.86
2023-05-05T18:36:01.075Z,19.6
2023-05-05T18:38:56.572Z,19.34
2023-05-05T18:41:53.149Z,19.16
2023-05-05T18:44:49.712Z,19.15
2023-05-05T18:47:45.336Z,19.19
2023-05-05T18:50:41.828Z,19.16
2023-05-05T18:53:37.395Z,19.02
2023-05-05T18:56:32.979Z,18.89
2023-05-05T18:59:28.486Z,18.79
2023-05-05T19:02:24.065Z,18.68
2023-05-05T19:05:20.656Z,18.51
2023-05-05T19:08:16.202Z,18.37
2023-05-05T19:11:14.804Z,18.26
2023-05-05T19:14:11.278Z,18.1
2023-05-05T19:17:06.943Z,18.16
2023-05-05T19:20:02.391Z,18.16
2023-05-05T19:23:02.979Z,18.17
2023-05-05T19:25:58.545Z,18.13
2023-05-05T19:28:55.117Z,18.1
2023-05-05T19:31:50.873Z,17.96
2023-05-05T19:34:46.232Z,17.92
2023-05-05T19:37:41.797Z,17.79
2023-05-05T19:40:38.303Z,17.76
2023-05-05T19:43:33.905Z,17.76
2023-05-05T19:46:29.575Z,17.78
2023-05-05T19:49:25.003Z,17.59
2023-05-05T19:52:22.684Z,17.51
2023-05-05T19:55:18.159Z,17.51
2023-05-05T19:58:13.704Z,17.47
2023-05-05T20:01:09.342Z,17.47
2023-05-05T20:04:04.802Z,17.4
2023-05-05T20:07:00.380Z,17.32
2023-05-05T20:09:56.178Z,17.25
2023-05-05T20:12:53.575Z,17.2
2023-05-05T20:15:51.069Z,17.17
2023-05-05T20:18:46.666Z,17.13
2023-05-05T20:21:42.199Z,17.05
2023-05-05T20:24:38.786Z,17.02
2023-05-05T20:27:36.016Z,17.01
2023-05-05T20:30:32.863Z,16.97
2023-05-05T20:33:29.457Z,16.97
2023-05-05T20:36:26.009Z,16.92
2023-05-05T20:39:23.510Z,16.86
2023-05-05T20:42:19.121Z,16.85
2023-05-05T20:45:15.685Z,16.84
2023-05-05T20:48:11.630Z,16.77
2023-05-05T20:51:08.787Z,16.68
2023-05-05T20:54:05.417Z,16.69
2023-05-05T20:57:02.921Z,16.63
2023-05-05T20:59:59.460Z,16.62
2023-05-05T21:02:57.261Z,16.62
2023-05-05T21:05:52.632Z,16.55
2023-05-05T21:08:48.155Z,16.6
2023-05-05T21:11:43.684Z,16.56
2023-05-05T21:14:42.228Z,16.37
2023-05-05T21:17:37.844Z,16.35
2023-05-05T21:20:35.396Z,16.24
2023-05-05T21:23:30.942Z,16.14
2023-05-05T21:26:26.528Z,16.06
2023-05-05T21:29:24.065Z,16.07
2023-05-05T21:32:19.731Z,15.93
2023-05-05T21:35:15.186Z,15.73
2023-05-05T21:38:11.750Z,15.59
2023-05-05T21:41:07.304Z,15.66
2023-05-05T21:44:02.858Z,15.65
2023-05-05T21:46:59.437Z,15.65
2023-05-05T21:49:54.992Z,15.55
2023-05-05T21:52:51.514Z,15.51
2023-05-05T21:55:48.067Z,15.51
2023-05-05T21:58:44.638Z,15.5
2023-05-05T22:01:40.330Z,15.52
2023-05-05T22:04:35.776Z,15.52
2023-05-05T22:07:33.054Z,15.42
2023-05-05T22:10:28.930Z,15.36
2023-05-05T22:13:24.485Z,15.29
2023-05-05T22:16:21.089Z,15.38
2023-05-05T22:19:17.583Z,15.39
2023-05-05T22:22:13.122Z,15.32
2023-05-05T22:25:09.897Z,15.24
2023-05-05T22:28:05.269Z,15.09
2023-05-05T22:31:01.803Z,15.02
2023-05-05T22:33:58.390Z,15.02
2023-05-05T22:36:55.963Z,15.09
2023-05-05T22:39:52.485Z,15.03
2023-05-05T22:42:48.033Z,15.04
2023-05-05T22:45:45.629Z,15.03
2023-05-05T22:48:41.149Z,14.92
2023-05-05T22:51:37.753Z,14.75
2023-05-05T22:54:33.289Z,14.69
2023-05-05T22:57:28.842Z,14.76
2023-05-05T23:00:25.441Z,14.7
2023-05-05T23:03:20.969Z,14.57
2023-05-05T23:06:16.529Z,14.6
2023-05-05T23:09:13.099Z,14.59
2023-05-05T23:12:08.637Z,14.56
2023-05-05T23:15:05.276Z,14.57
2023-05-05T23:18:00.821Z,14.63
2023-05-05T23:20:56.354Z,14.67
2023-05-05T23:23:51.932Z,14.84
2023-05-05T23:26:47.477Z,14.96
2023-05-05T23:29:43.026Z,15.17
2023-05-05T23:32:38.571Z,14.95
2023-05-05T23:35:34.100Z,14.9
2023-05-05T23:38:29.714Z,14.93
2023-05-05T23:41:25.273Z,14.97
2023-05-05T23:44:20.823Z,14.88
2023-05-05T23:47:16.407Z,14.85
2023-05-05T23:50:11.952Z,14.83
2023-05-05T23:53:07.553Z,14.73
2023-05-05T23:56:03.030Z,14.69
2023-05-05T23:58:58.610Z,14.49
